createdAt,value
2022-12-01T00:00:43.662Z,45.00
2022-12-01T00:03:10.074Z,39.70
2022-12-01T00:05:36.751Z,46.60
2022-12-01T00:08:05.127Z,46.13
2022-12-01T00:10:33.275Z,46.08
2022-12-01T00:13:01.923Z,44.30
2022-12-01T00:17:56.013Z,41.88
2022-12-01T00:20:22.389Z,44.20
2022-12-01T00:22:49.226Z,45.70
2022-12-01T00:25:18.435Z,47.63
2022-12-01T00:27:51.434Z,44.78
2022-12-01T00:30:19.680Z,51.33
2022-12-01T00:32:46.514Z,47.60
2022-12-01T00:35:13.775Z,44.33
2022-12-01T00:37:40.099Z,44.92
2022-12-01T00:40:07.699Z,48.53
2022-12-01T00:42:34.319Z,52.97
2022-12-01T00:45:00.668Z,47.00
2022-12-01T00:47:27.138Z,51.47
2022-12-01T00:49:53.540Z,45.75
2022-12-01T00:52:20.232Z,52.13
2022-12-01T00:54:46.730Z,51.95
2022-12-01T00:57:13.628Z,46.33
2022-12-01T00:59:39.988Z,44.53
2022-12-01T01:02:07.857Z,45.85
2022-12-01T01:04:35.855Z,51.17
2022-12-01T01:07:02.434Z,47.28
2022-12-01T01:09:28.825Z,50.40
2022-12-01T01:11:55.205Z,43.83
2022-12-01T01:14:24.183Z,51.45
2022-12-01T01:16:50.716Z,48.08
2022-12-01T01:19:17.724Z,44.33
2022-12-01T01:21:44.120Z,45.25
2022-12-01T01:24:10.549Z,44.40
2022-12-01T01:26:37.975Z,48.67
2022-12-01T01:29:07.653Z,44.17
2022-12-01T01:31:34.612Z,46.35
2022-12-01T01:34:01.244Z,44.72
2022-12-01T01:36:27.901Z,38.72
2022-12-01T01:38:55.175Z,38.38
2022-12-01T01:41:22.638Z,48.58
2022-12-01T01:43:55.205Z,45.83
2022-12-01T01:46:24.584Z,41.00
2022-12-01T01:48:55.140Z,39.05
2022-12-01T01:51:27.022Z,44.33
2022-12-01T01:53:56.748Z,44.78
2022-12-01T01:56:23.770Z,45.28
2022-12-01T01:58:51.998Z,43.13
2022-12-01T02:01:18.495Z,50.40
2022-12-01T02:03:45.990Z,45.83
2022-12-01T02:06:12.388Z,42.47
2022-12-01T02:08:38.782Z,45.95
2022-12-01T02:11:48.519Z,46.60
2022-12-01T02:14:42.466Z,46.33
2022-12-01T02:17:41.852Z,46.55
2022-12-01T02:20:30.123Z,43.70
2022-12-01T02:23:31.237Z,43.90
2022-12-01T02:26:16.243Z,47.33
2022-12-01T02:29:09.057Z,40.88
2022-12-01T02:31:43.449Z,47.65
2022-12-01T02:34:43.611Z,45.63
2022-12-01T02:37:31.077Z,48.05
2022-12-01T02:40:07.640Z,45.22
2022-12-01T02:42:53.859Z,48.55
2022-12-01T02:45:31.520Z,45.38
2022-12-01T02:48:01.859Z,44.13
2022-12-01T02:50:31.796Z,46.00
2022-12-01T02:53:00.339Z,46.50
2022-12-01T02:55:26.717Z,43.30
2022-12-01T02:57:53.059Z,47.63
2022-12-01T03:00:19.682Z,45.50
2022-12-01T03:03:04.888Z,51.42
2022-12-01T03:05:48.233Z,46.80
2022-12-01T03:08:32.557Z,55.72
2022-12-01T03:11:00.462Z,49.58
2022-12-01T03:13:38.961Z,47.53
2022-12-01T03:16:21.226Z,45.55
2022-12-01T03:18:53.604Z,44.88
2022-12-01T03:21:22.875Z,48.40
2022-12-01T03:23:55.210Z,49.83
2022-12-01T03:26:24.254Z,47.15
2022-12-01T03:28:54.810Z,47.80
2022-12-01T03:31:29.022Z,50.42
2022-12-01T03:34:00.851Z,49.47
2022-12-01T03:36:32.467Z,47.47
2022-12-01T03:39:06.829Z,53.70
2022-12-01T03:41:41.817Z,54.15
2022-12-01T03:44:20.574Z,53.60
2022-12-01T03:46:53.844Z,52.90
2022-12-01T03:49:24.646Z,50.80
2022-12-01T03:52:12.668Z,53.45
2022-12-01T03:55:12.000Z,49.67
2022-12-01T03:57:46.170Z,47.25
2022-12-01T04:00:15.255Z,45.63
2022-12-01T04:02:41.709Z,46.72
2022-12-01T04:05:10.972Z,44.92
2022-12-01T04:07:38.323Z,47.42
2022-12-01T04:10:05.907Z,51.58
2022-12-01T04:12:33.133Z,47.55
2022-12-01T04:15:05.206Z,52.92
2022-12-01T04:17:31.532Z,53.17
2022-12-01T04:19:58.207Z,50.08
2022-12-01T04:22:25.061Z,46.25
2022-12-01T04:24:51.871Z,47.30
2022-12-01T04:27:18.915Z,50.83
2022-12-01T04:29:45.422Z,50.60
2022-12-01T04:32:12.468Z,48.47
2022-12-01T04:34:38.888Z,45.65
2022-12-01T04:37:06.069Z,44.35
2022-12-01T04:39:32.401Z,47.28
2022-12-01T04:41:58.729Z,53.67
2022-12-01T04:44:28.879Z,48.03
2022-12-01T04:46:58.007Z,54.08
2022-12-01T04:49:24.742Z,51.45
2022-12-01T04:51:51.185Z,47.22
2022-12-01T04:54:18.152Z,52.67
2022-12-01T04:56:44.993Z,50.95
2022-12-01T04:59:11.494Z,52.50
2022-12-01T05:01:38.468Z,47.08
2022-12-01T05:04:04.966Z,53.08
2022-12-01T05:06:31.330Z,54.20
2022-12-01T05:09:00.324Z,49.63
2022-12-01T05:11:28.546Z,44.13
2022-12-01T05:13:55.190Z,46.90
2022-12-01T05:16:25.090Z,48.90
2022-12-01T05:19:12.929Z,48.75
2022-12-01T05:21:40.216Z,49.20
2022-12-01T05:24:07.802Z,46.97
2022-12-01T05:26:34.605Z,49.03
2022-12-01T05:29:00.958Z,39.15
2022-12-01T05:31:27.506Z,36.92
2022-12-01T05:33:53.939Z,42.13
2022-12-01T05:36:20.257Z,45.05
2022-12-01T05:38:46.832Z,43.65
2022-12-01T05:41:13.469Z,42.78
2022-12-01T05:43:39.802Z,46.08
2022-12-01T05:46:06.298Z,50.08
2022-12-01T05:48:32.749Z,46.30
2022-12-01T05:50:59.173Z,43.40
2022-12-01T05:53:25.563Z,44.42
2022-12-01T05:55:53.440Z,39.50
2022-12-01T05:58:20.810Z,39.90
2022-12-01T06:00:47.184Z,42.80
2022-12-01T06:03:14.437Z,45.38
2022-12-01T06:05:40.867Z,47.55
2022-12-01T06:08:07.768Z,40.88
2022-12-01T06:10:34.466Z,43.47
2022-12-01T06:13:00.859Z,50.50
2022-12-01T06:15:27.305Z,44.42
2022-12-01T06:17:53.821Z,46.55
2022-12-01T06:20:20.504Z,46.20
2022-12-01T06:22:46.827Z,48.20
2022-12-01T06:25:13.133Z,46.85
2022-12-01T06:27:39.449Z,49.80
2022-12-01T06:30:06.760Z,47.53
2022-12-01T06:32:33.283Z,46.40
2022-12-01T06:34:59.636Z,50.60
2022-12-01T06:37:27.606Z,48.40
2022-12-01T06:39:54.171Z,48.42
2022-12-01T06:42:20.595Z,44.10
2022-12-01T06:44:46.933Z,46.40
2022-12-01T06:47:13.347Z,47.13
2022-12-01T06:49:39.710Z,51.65
2022-12-01T06:52:06.075Z,50.30
2022-12-01T06:54:33.374Z,53.47
2022-12-01T06:56:59.730Z,48.05
2022-12-01T06:59:26.160Z,51.15
2022-12-01T07:01:52.964Z,55.50
2022-12-01T07:04:19.333Z,45.53
2022-12-01T07:06:45.737Z,48.40
2022-12-01T07:09:12.344Z,48.42
2022-12-01T07:11:38.776Z,52.20
2022-12-01T07:14:05.199Z,53.05
2022-12-01T07:16:31.596Z,53.47
2022-12-01T07:18:59.821Z,55.60
2022-12-01T07:21:26.127Z,55.25
2022-12-01T07:23:52.492Z,49.35
2022-12-01T07:26:18.922Z,50.50
2022-12-01T07:28:45.439Z,56.60
2022-12-01T07:31:18.171Z,52.50
2022-12-01T07:33:45.064Z,52.75
2022-12-01T07:36:12.824Z,50.97
2022-12-01T07:38:39.854Z,62.88
2022-12-01T07:41:12.126Z,60.95
2022-12-01T07:43:38.938Z,62.22
2022-12-01T07:46:15.749Z,57.90
2022-12-01T07:48:45.489Z,56.92
2022-12-01T07:51:18.004Z,53.28
2022-12-01T07:53:45.764Z,52.20
2022-12-01T07:56:12.736Z,55.63
2022-12-01T07:58:39.490Z,52.33
2022-12-01T08:01:12.196Z,60.45
2022-12-01T08:03:39.009Z,57.55
2022-12-01T08:06:06.644Z,56.75
2022-12-01T08:08:36.088Z,63.08
2022-12-01T08:11:14.080Z,56.22
2022-12-01T08:13:41.805Z,58.35
2022-12-01T08:16:10.178Z,58.63
2022-12-01T08:18:38.229Z,59.58
2022-12-01T08:21:06.474Z,62.17
2022-12-01T08:23:33.290Z,58.95
2022-12-01T08:26:09.415Z,58.55
2022-12-01T08:28:36.844Z,58.03
2022-12-01T08:31:12.347Z,62.85
2022-12-01T08:33:38.896Z,53.58
2022-12-01T08:36:05.781Z,62.42
2022-12-01T08:38:33.058Z,62.63
2022-12-01T08:41:01.373Z,55.58
2022-12-01T08:43:49.967Z,52.80
2022-12-01T08:46:14.479Z,62.08
2022-12-01T08:48:41.282Z,57.38
2022-12-01T08:51:10.997Z,62.70
2022-12-01T08:53:44.090Z,59.50
2022-12-01T08:56:13.897Z,54.45
2022-12-01T08:58:40.412Z,70.05
2022-12-01T09:01:09.534Z,67.43
2022-12-01T09:03:37.534Z,66.05
2022-12-01T09:06:06.981Z,56.60
2022-12-01T09:08:35.082Z,58.65
2022-12-01T09:11:04.570Z,57.45
2022-12-01T09:13:33.055Z,64.18
2022-12-01T09:16:05.359Z,61.90
2022-12-01T09:18:32.244Z,58.50
2022-12-01T09:20:59.117Z,63.03
2022-12-01T09:23:26.548Z,63.38
2022-12-01T09:25:53.629Z,68.60
2022-12-01T09:28:20.617Z,57.92
2022-12-01T09:30:47.381Z,60.72
2022-12-01T09:33:13.838Z,49.17
2022-12-01T09:35:40.232Z,58.47
2022-12-01T09:38:06.573Z,58.22
2022-12-01T09:40:38.105Z,55.50
2022-12-01T09:43:13.631Z,55.70
2022-12-01T09:45:45.141Z,53.60
2022-12-01T09:48:23.571Z,56.40
2022-12-01T09:50:50.000Z,54.30
2022-12-01T09:53:21.448Z,58.67
2022-12-01T09:55:49.025Z,62.65
2022-12-01T09:58:20.373Z,57.28
2022-12-01T10:00:49.491Z,58.78
2022-12-01T10:03:32.980Z,57.38
2022-12-01T10:06:26.885Z,54.83
2022-12-01T10:09:20.714Z,57.83
2022-12-01T10:11:48.427Z,55.88
2022-12-01T10:14:19.979Z,56.83
2022-12-01T10:17:18.098Z,58.95
2022-12-01T10:20:11.742Z,62.20
2022-12-01T10:23:05.756Z,51.00
2022-12-01T10:25:42.394Z,56.33
2022-12-01T10:28:39.405Z,53.80
2022-12-01T10:31:20.228Z,56.65
2022-12-01T10:33:58.338Z,60.42
2022-12-01T10:36:26.154Z,53.95
2022-12-01T10:38:52.728Z,52.57
2022-12-01T10:41:22.128Z,51.33
2022-12-01T10:43:52.412Z,45.15
2022-12-01T10:46:27.644Z,50.20
2022-12-01T10:48:59.327Z,51.53
2022-12-01T10:51:27.548Z,53.20
2022-12-01T10:54:08.078Z,49.65
2022-12-01T10:56:39.121Z,51.10
2022-12-01T10:59:24.349Z,56.60
2022-12-01T11:01:51.030Z,50.25
2022-12-01T11:04:44.947Z,49.10
2022-12-01T11:07:22.740Z,51.97
2022-12-01T11:10:02.646Z,51.58
2022-12-01T11:12:29.513Z,46.50
2022-12-01T11:14:57.343Z,48.67
2022-12-01T11:17:40.304Z,49.83
2022-12-01T11:20:28.354Z,45.63
2022-12-01T11:23:09.888Z,46.38
2022-12-01T11:25:36.647Z,48.08
2022-12-01T11:28:04.483Z,50.00
2022-12-01T11:30:32.697Z,44.87
2022-12-01T11:33:02.520Z,47.08
2022-12-01T11:35:36.194Z,44.15
2022-12-01T11:40:55.316Z,44.40
2022-12-01T11:43:34.347Z,39.28
2022-12-01T11:46:05.828Z,43.70
2022-12-01T11:48:36.161Z,38.67
2022-12-01T11:51:27.229Z,39.30
2022-12-01T11:54:14.254Z,37.85
2022-12-01T11:56:42.204Z,41.88
2022-12-01T11:59:17.830Z,37.13
2022-12-01T12:02:06.550Z,40.25
2022-12-01T12:04:42.858Z,35.75
2022-12-01T12:07:24.656Z,36.70
2022-12-01T12:10:05.512Z,38.08
2022-12-01T12:12:47.102Z,40.10
2022-12-01T12:15:51.103Z,37.35
2022-12-01T12:18:17.433Z,40.35
2022-12-01T12:20:59.235Z,38.03
2022-12-01T12:23:28.586Z,35.78
2022-12-01T12:26:20.474Z,31.52
2022-12-01T12:29:24.528Z,29.05
2022-12-01T12:32:19.599Z,32.75
2022-12-01T12:35:03.906Z,29.30
2022-12-01T12:37:53.845Z,30.27
2022-12-01T12:40:32.748Z,28.10
2022-12-01T12:43:05.120Z,32.13
2022-12-01T12:45:50.332Z,29.60
2022-12-01T12:48:32.735Z,32.45
2022-12-01T12:51:23.647Z,31.98
2022-12-01T12:53:57.961Z,31.60
2022-12-01T12:56:26.810Z,35.78
2022-12-01T12:59:05.478Z,35.33
2022-12-01T13:01:41.032Z,34.72
2022-12-01T13:04:14.192Z,36.22
2022-12-01T13:06:47.166Z,36.05
2022-12-01T13:09:20.078Z,34.95
2022-12-01T13:11:59.015Z,34.22
2022-12-01T13:14:34.868Z,34.35
2022-12-01T13:17:24.222Z,33.13
2022-12-01T13:19:50.857Z,37.90
2022-12-01T13:22:21.785Z,36.65
2022-12-01T13:24:48.210Z,39.47
2022-12-01T13:27:19.283Z,37.78
2022-12-01T13:29:49.585Z,39.38
2022-12-01T13:32:31.934Z,39.92
2022-12-01T13:35:00.289Z,38.05
2022-12-01T13:37:35.486Z,39.13
2022-12-01T13:40:24.216Z,41.17
2022-12-01T13:43:20.915Z,45.80
2022-12-01T13:45:48.944Z,46.28
2022-12-01T13:48:49.997Z,39.40
2022-12-01T13:51:16.528Z,39.45
2022-12-01T13:54:05.873Z,40.60
2022-12-01T13:56:39.776Z,41.60
2022-12-01T13:59:38.008Z,39.58
2022-12-01T14:02:19.684Z,42.00
2022-12-01T14:04:46.478Z,43.03
2022-12-01T14:07:19.221Z,36.20
2022-12-01T14:09:45.991Z,36.35
2022-12-01T14:12:19.709Z,39.50
2022-12-01T14:15:02.111Z,42.42
2022-12-01T14:17:38.542Z,38.50
2022-12-01T14:20:12.966Z,40.25
2022-12-01T14:22:46.016Z,37.30
2022-12-01T14:25:21.353Z,40.88
2022-12-01T14:27:55.249Z,39.20
2022-12-01T14:30:40.039Z,39.35
2022-12-01T14:33:42.280Z,40.28
2022-12-01T14:36:24.227Z,41.95
2022-12-01T14:38:59.418Z,38.65
2022-12-01T14:41:33.427Z,40.03
2022-12-01T14:44:05.404Z,40.75
2022-12-01T14:47:04.348Z,41.35
2022-12-01T14:49:49.925Z,37.60
2022-12-01T14:52:42.194Z,42.83
2022-12-01T14:55:19.173Z,40.20
2022-12-01T14:58:00.103Z,43.53
2022-12-01T15:00:26.739Z,47.38
2022-12-01T15:02:58.837Z,44.90
2022-12-01T15:05:28.206Z,46.47
2022-12-01T15:08:18.634Z,42.88
2022-12-01T15:10:51.677Z,44.13
2022-12-01T15:13:28.256Z,44.28
2022-12-01T15:15:56.195Z,44.83
2022-12-01T15:18:39.565Z,45.72
2022-12-01T15:21:12.029Z,49.50
2022-12-01T15:24:01.914Z,46.65
2022-12-01T15:26:34.258Z,41.78
2022-12-01T15:29:31.697Z,41.83
2022-12-01T15:32:02.952Z,49.85
2022-12-01T15:34:38.500Z,38.45
2022-12-01T15:37:09.554Z,46.58
2022-12-01T15:39:42.838Z,44.63
2022-12-01T15:42:22.717Z,41.97
2022-12-01T15:45:12.586Z,44.45
2022-12-01T15:47:43.407Z,46.15
2022-12-01T15:50:48.993Z,45.70
2022-12-01T15:53:29.309Z,42.88
2022-12-01T15:55:59.355Z,42.38
2022-12-01T15:58:30.132Z,42.80
2022-12-01T16:01:02.413Z,43.67
2022-12-01T16:03:29.420Z,47.25
2022-12-01T16:05:57.069Z,46.83
2022-12-01T16:08:27.080Z,44.72
2022-12-01T16:11:11.382Z,49.30
2022-12-01T16:13:47.878Z,44.33
2022-12-01T16:16:46.285Z,45.15
2022-12-01T16:22:11.950Z,49.53
2022-12-01T16:24:46.540Z,41.00
2022-12-01T16:27:23.711Z,48.38
2022-12-01T16:30:06.368Z,44.53
2022-12-01T16:32:38.417Z,42.85
2022-12-01T16:35:24.616Z,46.97
2022-12-01T16:37:51.034Z,47.22
2022-12-01T16:40:17.477Z,47.22
2022-12-01T16:42:43.956Z,44.78
2022-12-01T16:45:14.667Z,49.22
2022-12-01T16:47:42.346Z,44.40
2022-12-01T16:50:14.769Z,49.37
2022-12-01T16:52:44.541Z,46.03
2022-12-01T16:55:29.251Z,47.33
2022-12-01T16:57:55.831Z,46.00
2022-12-01T17:00:23.402Z,50.67
2022-12-01T17:02:50.192Z,51.10
2022-12-01T17:05:16.769Z,45.92
2022-12-01T17:07:43.204Z,45.40
2022-12-01T17:10:10.337Z,46.80
2022-12-01T17:12:36.760Z,45.22
2022-12-01T17:15:04.181Z,49.13
2022-12-01T17:17:30.551Z,45.13
2022-12-01T17:19:56.916Z,46.55
2022-12-01T17:22:24.321Z,48.75
2022-12-01T17:24:51.027Z,47.35
2022-12-01T17:27:18.022Z,41.42
2022-12-01T17:29:46.426Z,48.47
2022-12-01T17:32:13.928Z,47.65
2022-12-01T17:34:40.448Z,47.00
2022-12-01T17:37:07.110Z,46.15
2022-12-01T17:39:33.657Z,49.25
2022-12-01T17:42:00.005Z,45.05
2022-12-01T17:44:26.645Z,44.50
2022-12-01T17:46:53.199Z,40.65
2022-12-01T17:49:19.716Z,48.95
2022-12-01T17:51:46.144Z,44.78
2022-12-01T17:54:12.603Z,48.05
2022-12-01T17:56:39.148Z,42.53
2022-12-01T17:59:05.572Z,50.83
2022-12-01T18:01:32.323Z,44.50
2022-12-01T18:03:59.135Z,46.40
2022-12-01T18:06:26.819Z,47.28
2022-12-01T18:08:53.552Z,45.80
2022-12-01T18:11:20.368Z,46.28
2022-12-01T18:13:49.183Z,46.55
2022-12-01T18:16:20.981Z,46.97
2022-12-01T18:18:48.109Z,47.13
2022-12-01T18:21:17.154Z,46.75
2022-12-01T18:23:52.734Z,50.05
2022-12-01T18:26:21.835Z,48.40
2022-12-01T18:28:54.983Z,49.45
2022-12-01T18:31:21.539Z,48.75
2022-12-01T18:33:48.061Z,42.25
2022-12-01T18:36:18.317Z,46.25
2022-12-01T18:38:47.091Z,47.65
2022-12-01T18:43:40.124Z,44.10
2022-12-01T18:46:07.460Z,44.80
2022-12-01T18:48:35.011Z,39.78
2022-12-01T18:51:05.955Z,45.30
2022-12-01T18:53:35.459Z,42.20
2022-12-01T18:56:06.933Z,43.67
2022-12-01T18:58:33.842Z,44.53
2022-12-01T19:01:01.147Z,44.38
2022-12-01T19:03:33.251Z,45.45
2022-12-01T19:05:59.685Z,44.95
2022-12-01T19:08:26.096Z,46.58
2022-12-01T19:11:03.415Z,43.72
2022-12-01T19:13:31.213Z,48.97
2022-12-01T19:15:57.754Z,43.30
2022-12-01T19:18:24.818Z,53.28
2022-12-01T19:20:51.252Z,50.08
2022-12-01T19:23:17.633Z,50.10
2022-12-01T19:25:43.934Z,51.35
2022-12-01T19:28:10.298Z,51.83
2022-12-01T19:30:36.696Z,56.20
2022-12-01T19:33:03.085Z,56.22
2022-12-01T19:35:29.490Z,58.90
2022-12-01T19:37:55.842Z,57.72
2022-12-01T19:40:22.208Z,63.20
2022-12-01T19:42:48.570Z,63.60
2022-12-01T19:45:14.985Z,64.05
2022-12-01T19:47:41.339Z,56.83
2022-12-01T19:50:08.414Z,63.85
2022-12-01T19:52:36.485Z,59.75
2022-12-01T19:55:03.227Z,64.18
2022-12-01T19:57:29.573Z,62.03
2022-12-01T19:59:55.928Z,65.00
2022-12-01T20:02:28.947Z,66.72
2022-12-01T20:04:56.524Z,71.43
2022-12-01T20:07:23.147Z,68.53
2022-12-01T20:09:50.231Z,75.97
2022-12-01T20:12:16.812Z,91.35
2022-12-01T20:14:43.223Z,69.70
2022-12-01T20:17:15.581Z,71.38
2022-12-01T20:19:42.345Z,71.15
2022-12-01T20:22:08.744Z,70.50
2022-12-01T20:24:35.914Z,70.50
2022-12-01T20:27:02.621Z,68.10
2022-12-01T20:29:29.741Z,71.93
2022-12-01T20:31:58.044Z,73.68
2022-12-01T20:34:27.533Z,76.32
2022-12-01T20:36:54.981Z,78.18
2022-12-01T20:39:21.634Z,77.88
2022-12-01T20:41:48.404Z,77.68
2022-12-01T20:44:16.622Z,77.80
2022-12-01T20:46:47.636Z,79.55
2022-12-01T20:49:16.673Z,79.97
2022-12-01T20:51:43.627Z,75.85
2022-12-01T20:54:29.864Z,80.38
2022-12-01T20:56:57.405Z,82.05
2022-12-01T20:59:24.018Z,80.18
2022-12-01T21:01:50.401Z,78.15
2022-12-01T21:04:17.596Z,90.50
2022-12-01T21:06:44.021Z,78.68
2022-12-01T21:09:11.492Z,85.18
2022-12-01T21:12:04.785Z,85.10
2022-12-01T21:14:39.020Z,79.32
2022-12-01T21:17:18.640Z,83.22
2022-12-01T21:20:01.356Z,87.85
2022-12-01T21:22:27.777Z,92.22
2022-12-01T21:25:03.506Z,81.30
2022-12-01T21:27:29.869Z,84.55
2022-12-01T21:29:56.855Z,80.28
2022-12-01T21:32:31.207Z,78.85
2022-12-01T21:35:13.982Z,78.97
2022-12-01T21:37:40.348Z,80.85
2022-12-01T21:40:20.332Z,79.72
2022-12-01T21:42:47.529Z,73.70
2022-12-01T21:45:31.874Z,78.97
2022-12-01T21:48:05.760Z,82.60
2022-12-01T21:50:32.758Z,77.75
2022-12-01T21:52:59.168Z,73.30
2022-12-01T21:55:26.005Z,77.82
2022-12-01T21:57:53.691Z,84.03
2022-12-01T22:00:26.611Z,83.90
2022-12-01T22:03:12.071Z,78.63
2022-12-01T22:05:41.464Z,80.65
2022-12-01T22:08:24.482Z,82.07
2022-12-01T22:11:04.593Z,80.82
2022-12-01T22:13:41.890Z,76.05
2022-12-01T22:16:14.595Z,74.55
2022-12-01T22:18:44.734Z,77.68
2022-12-01T22:21:29.861Z,74.78
2022-12-01T22:24:11.290Z,75.70
2022-12-01T22:26:41.179Z,75.45
2022-12-01T22:29:22.608Z,71.50
2022-12-01T22:31:48.942Z,77.22
2022-12-01T22:34:16.570Z,71.95
2022-12-01T22:36:42.872Z,80.68
2022-12-01T22:39:46.842Z,71.70
2022-12-01T22:42:20.861Z,75.35
2022-12-01T22:44:47.553Z,81.90
2022-12-01T22:47:14.474Z,80.85
2022-12-01T22:49:42.332Z,89.18
2022-12-01T22:52:22.349Z,97.00
2022-12-01T22:54:50.270Z,92.80
2022-12-01T22:57:28.321Z,97.72
2022-12-01T22:59:55.326Z,81.28
2022-12-01T23:02:29.706Z,83.82
2022-12-01T23:05:01.536Z,84.40
2022-12-01T23:07:33.864Z,90.80
2022-12-01T23:10:12.069Z,80.80
2022-12-01T23:12:38.681Z,81.95
2022-12-01T23:15:32.152Z,71.90
2022-12-01T23:18:17.986Z,71.18
2022-12-01T23:20:46.962Z,74.85
2022-12-01T23:23:30.367Z,71.97
2022-12-01T23:25:57.234Z,75.03
2022-12-01T23:28:24.535Z,78.68
2022-12-01T23:30:58.081Z,69.30
2022-12-01T23:33:27.942Z,67.13
2022-12-01T23:35:59.283Z,59.50
2022-12-01T23:38:37.158Z,66.47
2022-12-01T23:41:16.371Z,63.10
2022-12-01T23:43:45.010Z,64.97
2022-12-01T23:46:20.550Z,70.55
2022-12-01T23:48:51.168Z,68.05
2022-12-01T23:51:28.365Z,69.10
2022-12-01T23:53:56.415Z,66.82
2022-12-01T23:56:25.019Z,75.43
2022-12-01T23:58:52.726Z,68.45
